createdAt,value
2023-04-11T00:00:25.453Z,9.48
2023-04-11T00:02:55.650Z,9.93
2023-04-11T00:05:26.428Z,9.52
2023-04-11T00:07:54.671Z,8.90
2023-04-11T00:10:23.038Z,9.50
2023-04-11T00:12:52.683Z,10.32
2023-04-11T00:15:19.402Z,9.80
2023-04-11T00:17:46.135Z,9.45
2023-04-11T00:20:12.898Z,9.98
2023-04-11T00:22:39.715Z,9.90
2023-04-11T00:25:07.053Z,9.77
2023-04-11T00:27:33.789Z,9.75
2023-04-11T00:30:00.946Z,9.77
2023-04-11T00:32:27.947Z,9.85
2023-04-11T00:34:54.672Z,10.07
2023-04-11T00:37:21.397Z,9.65
2023-04-11T00:39:49.406Z,9.65
2023-04-11T00:42:17.012Z,9.32
2023-04-11T00:44:43.971Z,9.68
2023-04-11T00:47:12.108Z,9.60
2023-04-11T00:49:40.184Z,9.20
2023-04-11T00:52:08.440Z,10.00
2023-04-11T00:54:35.435Z,9.15
2023-04-11T00:57:05.012Z,9.82
2023-04-11T00:59:33.149Z,10.02
2023-04-11T01:02:01.608Z,9.52
2023-04-11T01:04:30.642Z,9.90
2023-04-11T01:07:03.445Z,9.48
2023-04-11T01:09:32.806Z,9.60
2023-04-11T01:12:01.648Z,10.18
2023-04-11T01:14:29.080Z,9.80
2023-04-11T01:16:58.026Z,9.10
2023-04-11T01:19:28.002Z,10.05
2023-04-11T01:22:07.641Z,9.30
2023-04-11T01:24:35.822Z,9.75
2023-04-11T01:27:04.026Z,9.90
2023-04-11T01:29:35.840Z,10.10
2023-04-11T01:32:05.542Z,9.85
2023-04-11T01:34:36.090Z,9.77
2023-04-11T01:37:03.027Z,9.35
2023-04-11T01:39:30.264Z,9.70
2023-04-11T01:41:57.854Z,10.23
2023-04-11T01:44:25.244Z,9.88
2023-04-11T01:46:52.098Z,9.45
2023-04-11T01:49:19.084Z,9.65
2023-04-11T01:51:45.783Z,10.05
2023-04-11T01:54:12.529Z,9.77
2023-04-11T01:56:39.261Z,9.70
2023-04-11T01:59:05.961Z,9.88
2023-04-11T02:01:32.682Z,10.60
2023-04-11T02:03:59.529Z,9.82
2023-04-11T02:06:26.293Z,10.32
2023-04-11T02:08:53.571Z,10.32
2023-04-11T02:11:20.354Z,10.35
2023-04-11T02:13:47.055Z,9.73
2023-04-11T02:16:14.028Z,9.90
2023-04-11T02:18:42.685Z,10.13
2023-04-11T02:21:10.821Z,10.73
2023-04-11T02:23:37.756Z,9.73
2023-04-11T02:26:05.899Z,10.20
2023-04-11T02:28:32.596Z,10.15
2023-04-11T02:31:03.039Z,10.43
2023-04-11T02:33:33.366Z,10.38
2023-04-11T02:36:03.581Z,10.30
2023-04-11T02:38:31.920Z,10.45
2023-04-11T02:41:02.392Z,10.55
2023-04-11T02:43:29.365Z,10.27
2023-04-11T02:46:02.295Z,10.27
2023-04-11T02:48:36.461Z,10.52
2023-04-11T02:51:04.680Z,10.95
2023-04-11T02:53:32.083Z,10.45
2023-04-11T02:56:00.307Z,10.77
2023-04-11T02:58:28.041Z,10.02
2023-04-11T03:00:57.909Z,10.20
2023-04-11T03:03:25.173Z,10.45
2023-04-11T03:05:53.195Z,10.50
2023-04-11T03:08:23.078Z,10.45
2023-04-11T03:10:49.838Z,10.23
2023-04-11T03:13:25.476Z,9.93
2023-04-11T03:15:55.102Z,10.70
2023-04-11T03:18:23.601Z,9.85
2023-04-11T03:20:51.965Z,11.00
2023-04-11T03:23:22.008Z,10.13
2023-04-11T03:25:49.175Z,10.52
2023-04-11T03:28:17.028Z,10.50
2023-04-11T03:30:44.143Z,10.40
2023-04-11T03:33:10.836Z,10.18
2023-04-11T03:35:37.697Z,10.48
2023-04-11T03:38:04.426Z,10.43
2023-04-11T03:40:31.108Z,10.38
2023-04-11T03:42:58.071Z,11.02
2023-04-11T03:45:24.814Z,10.30
2023-04-11T03:47:51.765Z,10.32
2023-04-11T03:50:19.062Z,10.30
2023-04-11T03:52:45.855Z,10.10
2023-04-11T03:55:12.666Z,10.50
2023-04-11T03:57:39.352Z,10.05
2023-04-11T04:00:06.635Z,10.48
2023-04-11T04:02:33.736Z,10.55
2023-04-11T04:05:00.660Z,10.27
2023-04-11T04:07:28.113Z,10.57
2023-04-11T04:09:54.842Z,11.07
2023-04-11T04:12:21.957Z,11.55
2023-04-11T04:14:48.992Z,11.77
2023-04-11T04:17:16.136Z,11.15
2023-04-11T04:19:44.553Z,11.63
2023-04-11T04:22:12.711Z,11.18
2023-04-11T04:24:41.084Z,11.63
2023-04-11T04:27:15.047Z,11.23
2023-04-11T04:29:43.011Z,11.40
2023-04-11T04:32:10.289Z,11.75
2023-04-11T04:34:43.093Z,11.55
2023-04-11T04:37:11.391Z,12.43
2023-04-11T04:39:38.143Z,12.55
2023-04-11T04:42:06.335Z,12.57
2023-04-11T04:44:34.399Z,13.45
2023-04-11T04:47:01.109Z,13.00
2023-04-11T04:49:27.852Z,11.77
2023-04-11T04:51:54.545Z,12.77
2023-04-11T04:54:21.215Z,14.50
2023-04-11T04:56:48.012Z,14.00
2023-04-11T04:59:14.703Z,14.45
2023-04-11T05:01:41.670Z,14.23
2023-04-11T05:04:08.512Z,14.95
2023-04-11T05:06:35.477Z,14.55
2023-04-11T05:09:02.432Z,14.70
2023-04-11T05:11:29.151Z,14.95
2023-04-11T05:13:56.085Z,15.15
2023-04-11T05:16:23.008Z,15.43
2023-04-11T05:18:49.798Z,14.27
2023-04-11T05:21:16.810Z,14.02
2023-04-11T05:23:44.114Z,14.93
2023-04-11T05:26:12.289Z,14.13
2023-04-11T05:28:39.107Z,14.30
2023-04-11T05:31:07.466Z,14.38
2023-04-11T05:33:35.912Z,14.77
2023-04-11T05:36:03.192Z,15.10
2023-04-11T05:38:31.110Z,15.75
2023-04-11T05:40:57.804Z,16.98
2023-04-11T05:43:25.757Z,15.60
2023-04-11T05:45:52.519Z,15.18
2023-04-11T05:48:19.283Z,16.17
2023-04-11T05:50:46.373Z,15.65
2023-04-11T05:53:13.183Z,16.88
2023-04-11T05:55:39.949Z,14.75
2023-04-11T05:58:06.712Z,15.35
2023-04-11T06:00:33.430Z,16.52
2023-04-11T06:03:01.153Z,16.33
2023-04-11T06:05:28.026Z,16.75
2023-04-11T06:07:57.219Z,16.52
2023-04-11T06:10:24.007Z,15.63
2023-04-11T06:12:51.088Z,16.75
2023-04-11T06:15:17.890Z,16.80
2023-04-11T06:17:44.651Z,16.38
2023-04-11T06:20:12.907Z,16.88
2023-04-11T06:22:40.939Z,16.08
2023-04-11T06:25:10.219Z,16.17
2023-04-11T06:27:38.111Z,16.45
2023-04-11T06:30:05.775Z,15.77
2023-04-11T06:32:33.642Z,16.77
2023-04-11T06:35:00.392Z,16.60
2023-04-11T06:37:27.135Z,16.77
2023-04-11T06:39:55.182Z,15.52
2023-04-11T06:42:21.939Z,16.27
2023-04-11T06:44:51.192Z,17.33
2023-04-11T06:47:18.091Z,17.08
2023-04-11T06:49:48.382Z,17.50
2023-04-11T06:52:17.439Z,17.70
2023-04-11T06:54:47.485Z,16.05
2023-04-11T06:57:14.294Z,16.85
2023-04-11T06:59:42.386Z,16.67
2023-04-11T07:02:11.637Z,16.08
2023-04-11T07:04:38.706Z,16.77
2023-04-11T07:07:05.594Z,17.70
2023-04-11T07:09:32.490Z,16.73
2023-04-11T07:11:59.668Z,16.33
2023-04-11T07:14:26.382Z,15.27
2023-04-11T07:16:53.063Z,15.73
2023-04-11T07:19:19.845Z,16.67
2023-04-11T07:21:46.848Z,15.70
2023-04-11T07:24:13.599Z,16.10
2023-04-11T07:26:41.433Z,15.98
2023-04-11T07:29:10.987Z,18.00
2023-04-11T07:31:40.414Z,16.17
2023-04-11T07:34:07.367Z,17.23
2023-04-11T07:36:34.013Z,16.10
2023-04-11T07:39:00.733Z,17.23
2023-04-11T07:41:27.424Z,16.85
2023-04-11T07:43:54.323Z,15.60
2023-04-11T07:46:21.468Z,15.80
2023-04-11T07:48:48.137Z,17.00
2023-04-11T07:51:14.854Z,16.35
2023-04-11T07:53:42.810Z,15.18
2023-04-11T07:56:10.193Z,15.70
2023-04-11T07:58:38.407Z,17.42
2023-04-11T08:01:06.528Z,14.70
2023-04-11T08:03:34.879Z,16.63
2023-04-11T08:06:01.767Z,15.20
2023-04-11T08:08:29.491Z,14.57
2023-04-11T08:10:56.156Z,14.85
2023-04-11T08:13:24.363Z,15.55
2023-04-11T08:15:52.082Z,14.27
2023-04-11T08:18:19.097Z,14.32
2023-04-11T08:20:45.860Z,13.30
2023-04-11T08:23:12.524Z,14.35
2023-04-11T08:25:40.323Z,14.02
2023-04-11T08:28:07.030Z,14.32
2023-04-11T08:30:35.431Z,17.05
2023-04-11T08:33:02.200Z,19.08
2023-04-11T08:35:29.165Z,15.02
2023-04-11T08:37:55.855Z,10.13
2023-04-11T08:40:23.218Z,9.50
2023-04-11T08:42:51.364Z,8.88
2023-04-11T08:45:18.032Z,8.60
2023-04-11T08:47:45.561Z,8.25
2023-04-11T08:50:12.796Z,8.20
2023-04-11T08:52:44.654Z,6.63
2023-04-11T08:55:13.465Z,6.60
2023-04-11T08:57:40.148Z,6.97
2023-04-11T09:00:07.937Z,7.15
2023-04-11T09:02:49.639Z,5.68
2023-04-11T09:05:31.775Z,5.97
2023-04-11T09:08:00.333Z,4.80
2023-04-11T09:10:27.220Z,5.28
2023-04-11T09:12:57.545Z,4.63
2023-04-11T09:15:26.678Z,3.88
2023-04-11T09:17:55.043Z,3.92
2023-04-11T09:20:24.741Z,3.85
2023-04-11T09:22:52.693Z,3.80
2023-04-11T09:25:20.814Z,3.42
2023-04-11T09:27:48.633Z,3.97
2023-04-11T09:30:23.332Z,4.00
2023-04-11T09:32:51.603Z,4.00
2023-04-11T09:35:21.027Z,3.72
2023-04-11T09:37:50.437Z,3.55
2023-04-11T09:40:19.196Z,4.05
2023-04-11T09:42:47.088Z,3.83
2023-04-11T09:45:21.594Z,4.22
2023-04-11T09:47:51.854Z,3.72
2023-04-11T09:50:19.233Z,4.47
2023-04-11T09:52:47.242Z,4.32
2023-04-11T09:55:19.714Z,3.85
2023-04-11T09:57:51.529Z,3.78
2023-04-11T10:00:23.269Z,3.17
2023-04-11T10:02:52.020Z,3.75
2023-04-11T10:05:22.822Z,3.53
2023-04-11T10:08:01.244Z,3.35
2023-04-11T10:10:28.354Z,3.67
2023-04-11T10:12:55.062Z,3.03
2023-04-11T10:15:21.860Z,3.28
2023-04-11T10:18:11.466Z,2.88
2023-04-11T10:20:47.474Z,3.30
2023-04-11T10:23:15.159Z,2.95
2023-04-11T10:25:59.808Z,3.08
2023-04-11T10:28:32.972Z,2.85
2023-04-11T10:31:10.273Z,3.15
2023-04-11T10:33:37.473Z,3.03
2023-04-11T10:36:19.609Z,2.30
2023-04-11T10:38:50.995Z,2.15
2023-04-11T10:41:28.725Z,2.40
2023-04-11T10:44:30.152Z,2.42
2023-04-11T10:46:57.177Z,2.42
2023-04-11T10:49:40.350Z,1.85
2023-04-11T10:52:23.588Z,2.38
2023-04-11T10:54:54.329Z,2.38
2023-04-11T10:57:21.883Z,2.17
2023-04-11T10:59:51.566Z,2.05
2023-04-11T11:02:18.833Z,2.42
2023-04-11T11:04:47.140Z,2.42
2023-04-11T11:07:15.085Z,2.33
2023-04-11T11:09:47.327Z,2.20
2023-04-11T11:12:15.600Z,2.00
2023-04-11T11:14:44.679Z,2.30
2023-04-11T11:17:12.809Z,2.35
2023-04-11T11:19:47.250Z,2.35
2023-04-11T11:22:21.508Z,2.10
2023-04-11T11:24:48.274Z,2.38
2023-04-11T11:27:23.168Z,2.05
2023-04-11T11:29:51.121Z,2.10
2023-04-11T11:32:25.901Z,1.90
2023-04-11T11:34:53.866Z,2.00
2023-04-11T11:37:20.626Z,2.20
2023-04-11T11:39:48.800Z,1.95
2023-04-11T11:42:15.820Z,2.13
2023-04-11T11:44:42.598Z,2.08
2023-04-11T11:47:10.765Z,2.10
2023-04-11T11:49:48.529Z,2.25
2023-04-11T11:52:36.213Z,1.60
2023-04-11T11:55:28.448Z,1.88
2023-04-11T11:57:59.971Z,1.85
2023-04-11T12:00:29.479Z,1.60
2023-04-11T12:02:57.924Z,1.10
2023-04-11T12:05:25.492Z,1.73
2023-04-11T12:07:56.398Z,1.83
2023-04-11T12:10:23.326Z,1.67
2023-04-11T12:12:53.505Z,1.65
2023-04-11T12:15:37.165Z,1.10
2023-04-11T12:18:05.881Z,1.20
2023-04-11T12:20:32.782Z,1.52
2023-04-11T12:22:59.629Z,1.30
2023-04-11T12:25:28.510Z,1.42
2023-04-11T12:27:56.456Z,1.63
2023-04-11T12:30:23.268Z,1.58
2023-04-11T12:32:51.664Z,1.35
2023-04-11T12:35:18.714Z,1.23
2023-04-11T12:37:46.559Z,1.40
2023-04-11T12:40:15.424Z,1.30
2023-04-11T12:42:56.706Z,1.30
2023-04-11T12:45:26.942Z,1.20
2023-04-11T12:47:54.607Z,2.20
2023-04-11T12:50:24.926Z,2.20
2023-04-11T12:52:52.555Z,2.20
2023-04-11T12:55:19.561Z,2.20
2023-04-11T12:57:46.367Z,2.38
2023-04-11T13:00:13.842Z,2.83
2023-04-11T13:02:44.443Z,2.42
2023-04-11T13:05:13.018Z,2.25
2023-04-11T13:07:39.750Z,2.80
2023-04-11T13:10:10.314Z,2.00
2023-04-11T13:12:37.350Z,2.70
2023-04-11T13:15:04.388Z,2.78
2023-04-11T13:17:31.259Z,2.28
2023-04-11T13:19:58.144Z,1.95
2023-04-11T13:22:24.987Z,2.15
2023-04-11T13:24:51.722Z,1.73
2023-04-11T13:27:18.466Z,1.52
2023-04-11T13:29:45.269Z,1.30
2023-04-11T13:32:11.950Z,1.48
2023-04-11T13:34:38.597Z,1.60
2023-04-11T13:37:06.769Z,1.13
2023-04-11T13:39:33.492Z,1.20
2023-04-11T13:42:01.703Z,1.13
2023-04-11T13:44:28.477Z,1.33
2023-04-11T13:46:56.612Z,1.00
2023-04-11T13:49:23.352Z,1.23
2023-04-11T13:51:51.338Z,1.42
2023-04-11T13:54:20.188Z,1.30
2023-04-11T13:56:48.917Z,0.93
2023-04-11T13:59:15.578Z,0.82
2023-04-11T14:01:46.432Z,1.38
2023-04-11T14:04:17.779Z,1.50
2023-04-11T14:06:45.980Z,1.38
2023-04-11T14:09:13.717Z,1.30
2023-04-11T14:11:41.535Z,1.40
2023-04-11T14:14:08.275Z,1.48
2023-04-11T14:16:35.043Z,1.23
2023-04-11T14:19:01.726Z,1.42
2023-04-11T14:21:28.776Z,1.17
2023-04-11T14:23:55.938Z,1.60
2023-04-11T14:26:22.965Z,0.93
2023-04-11T14:28:49.786Z,1.38
2023-04-11T14:31:16.640Z,1.30
2023-04-11T14:33:43.423Z,1.42
2023-04-11T14:36:10.264Z,1.40
2023-04-11T14:38:37.948Z,1.60
2023-04-11T14:41:06.027Z,1.20
2023-04-11T14:43:32.880Z,1.42
2023-04-11T14:45:59.715Z,1.55
2023-04-11T14:48:26.896Z,1.50
2023-04-11T14:50:53.779Z,1.60
2023-04-11T14:53:21.634Z,1.35
2023-04-11T14:55:48.313Z,1.50
2023-04-11T14:58:15.479Z,1.52
2023-04-11T15:00:42.189Z,1.70
2023-04-11T15:03:09.413Z,1.73
2023-04-11T15:05:38.955Z,1.50
2023-04-11T15:08:05.677Z,1.67
2023-04-11T15:10:32.424Z,1.52
2023-04-11T15:12:59.126Z,1.52
2023-04-11T15:15:25.841Z,1.98
2023-04-11T15:18:19.818Z,1.70
2023-04-11T15:20:46.914Z,1.60
2023-04-11T15:23:14.992Z,1.60
2023-04-11T15:25:43.061Z,1.90
2023-04-11T15:28:10.880Z,1.50
2023-04-11T15:30:51.179Z,2.00
2023-04-11T15:33:20.471Z,2.35
2023-04-11T15:35:47.980Z,1.88
2023-04-11T15:38:16.289Z,2.15
2023-04-11T15:40:43.295Z,2.40
2023-04-11T15:43:10.966Z,1.60
2023-04-11T15:45:38.890Z,1.75
2023-04-11T15:48:06.259Z,1.90
2023-04-11T15:50:33.001Z,1.25
2023-04-11T15:52:59.796Z,1.23
2023-04-11T15:55:26.592Z,1.63
2023-04-11T15:57:53.346Z,1.45
2023-04-11T16:00:20.773Z,1.50
2023-04-11T16:02:48.150Z,1.40
2023-04-11T16:05:15.487Z,1.70
2023-04-11T16:07:43.524Z,2.03
2023-04-11T16:10:10.458Z,1.85
2023-04-11T16:12:37.479Z,1.60
2023-04-11T16:15:05.577Z,1.88
2023-04-11T16:17:34.138Z,1.80
2023-04-11T16:20:02.004Z,1.77
2023-04-11T16:22:28.715Z,1.98
2023-04-11T16:24:55.384Z,1.58
2023-04-11T16:27:22.135Z,1.60
2023-04-11T16:29:48.910Z,1.60
2023-04-11T16:32:15.601Z,1.65
2023-04-11T16:34:42.305Z,1.75
2023-04-11T16:37:10.329Z,1.23
2023-04-11T16:39:36.986Z,2.05
2023-04-11T16:42:07.623Z,1.48
2023-04-11T16:44:38.729Z,2.10
2023-04-11T16:47:07.942Z,1.83
2023-04-11T16:49:36.225Z,1.58
2023-04-11T16:52:04.374Z,1.80
2023-04-11T16:54:34.324Z,2.15
2023-04-11T16:57:03.574Z,2.10
2023-04-11T16:59:32.472Z,2.05
2023-04-11T17:02:02.933Z,2.00
2023-04-11T17:04:31.216Z,2.33
2023-04-11T17:06:59.099Z,2.08
2023-04-11T17:09:26.869Z,1.70
2023-04-11T17:11:53.734Z,1.55
2023-04-11T17:14:24.302Z,2.28
2023-04-11T17:16:52.506Z,1.92
2023-04-11T17:19:24.569Z,2.15
2023-04-11T17:21:53.857Z,2.63
2023-04-11T17:24:23.229Z,1.50
2023-04-11T17:26:53.657Z,1.73
2023-04-11T17:29:23.848Z,1.77
2023-04-11T17:31:53.279Z,1.38
2023-04-11T17:34:20.039Z,1.60
2023-04-11T17:36:48.826Z,1.80
2023-04-11T17:39:18.633Z,1.60
2023-04-11T17:41:47.186Z,1.40
2023-04-11T17:44:14.178Z,1.63
2023-04-11T17:46:41.239Z,1.83
2023-04-11T17:49:08.128Z,1.98
2023-04-11T17:51:35.284Z,1.98
2023-04-11T17:54:03.024Z,1.60
2023-04-11T17:56:29.692Z,1.80
2023-04-11T17:58:56.391Z,1.90
2023-04-11T18:01:23.426Z,1.60
2023-04-11T18:03:50.216Z,2.20
2023-04-11T18:06:16.942Z,1.58
2023-04-11T18:08:51.006Z,1.90
2023-04-11T18:11:18.658Z,1.77
2023-04-11T18:13:47.634Z,2.03
2023-04-11T18:16:16.226Z,2.13
2023-04-11T18:18:42.987Z,1.85
2023-04-11T18:21:11.151Z,1.90
2023-04-11T18:23:38.793Z,2.15
2023-04-11T18:26:06.900Z,2.35
2023-04-11T18:28:33.698Z,2.42
2023-04-11T18:31:01.593Z,2.92
2023-04-11T18:33:28.974Z,2.60
2023-04-11T18:35:56.902Z,2.47
2023-04-11T18:38:23.884Z,2.45
2023-04-11T18:40:55.317Z,2.95
2023-04-11T18:43:24.502Z,2.35
2023-04-11T18:45:53.372Z,2.40
2023-04-11T18:48:25.454Z,2.47
2023-04-11T18:51:11.341Z,1.85
2023-04-11T18:53:39.607Z,1.80
2023-04-11T18:56:07.256Z,2.50
2023-04-11T18:58:38.985Z,2.50
2023-04-11T19:03:47.138Z,2.10
2023-04-11T19:06:14.546Z,2.42
2023-04-11T19:08:41.340Z,2.75
2023-04-11T19:11:12.143Z,2.65
2023-04-11T19:13:40.217Z,2.60
2023-04-11T19:16:07.363Z,2.70
2023-04-11T19:18:35.559Z,2.70
2023-04-11T19:21:03.629Z,2.72
2023-04-11T19:23:31.978Z,2.92
2023-04-11T19:25:59.137Z,2.55
2023-04-11T19:28:30.949Z,2.70
2023-04-11T19:30:59.022Z,2.97
2023-04-11T19:33:26.053Z,3.30
2023-04-11T19:35:55.420Z,2.78
2023-04-11T19:38:22.176Z,2.63
2023-04-11T19:40:49.462Z,2.63
2023-04-11T19:43:16.488Z,2.95
2023-04-11T19:45:43.580Z,3.20
2023-04-11T19:48:10.376Z,3.10
2023-04-11T19:50:37.167Z,3.03
2023-04-11T19:53:03.973Z,2.97
2023-04-11T19:55:30.741Z,3.20
2023-04-11T19:57:57.390Z,3.40
2023-04-11T20:00:25.980Z,3.45
2023-04-11T20:02:54.522Z,3.30
2023-04-11T20:05:21.367Z,4.05
2023-04-11T20:07:48.395Z,3.35
2023-04-11T20:10:16.174Z,3.33
2023-04-11T20:12:44.344Z,3.10
2023-04-11T20:15:11.356Z,2.72
2023-04-11T20:17:38.580Z,2.22
2023-04-11T20:20:05.751Z,2.40
2023-04-11T20:22:34.345Z,2.67
2023-04-11T20:25:01.117Z,2.03
2023-04-11T20:27:27.799Z,2.38
2023-04-11T20:29:54.526Z,2.70
2023-04-11T20:32:21.401Z,2.03
2023-04-11T20:34:48.226Z,2.38
2023-04-11T20:37:16.969Z,2.10
2023-04-11T20:39:48.750Z,2.25
2023-04-11T20:42:15.939Z,2.17
2023-04-11T20:44:42.772Z,2.03
2023-04-11T20:47:09.506Z,2.00
2023-04-11T20:49:36.656Z,1.90
2023-04-11T20:52:03.371Z,2.08
2023-04-11T20:54:30.176Z,1.98
2023-04-11T20:56:56.883Z,2.42
2023-04-11T20:59:23.697Z,2.17
2023-04-11T21:01:50.456Z,2.28
2023-04-11T21:04:17.278Z,2.17
2023-04-11T21:06:44.034Z,2.25
2023-04-11T21:09:10.728Z,2.08
2023-04-11T21:11:37.419Z,2.10
2023-04-11T21:14:04.875Z,2.90
2023-04-11T21:16:31.559Z,2.53
2023-04-11T21:18:58.226Z,2.70
2023-04-11T21:21:25.025Z,2.70
2023-04-11T21:23:51.709Z,18.20
2023-04-11T21:26:18.653Z,3.63
2023-04-11T21:28:45.326Z,2.67
2023-04-11T21:31:12.062Z,2.83
2023-04-11T21:33:38.737Z,3.17
2023-04-11T21:36:05.858Z,2.97
2023-04-11T21:38:32.587Z,2.90
2023-04-11T21:40:59.278Z,2.60
2023-04-11T21:43:25.984Z,2.80
2023-04-11T21:45:52.747Z,3.25
2023-04-11T21:48:19.509Z,3.92
2023-04-11T21:50:46.275Z,3.08
2023-04-11T21:53:13.081Z,3.50
2023-04-11T21:55:44.867Z,3.10
2023-04-11T21:58:21.923Z,3.50
2023-04-11T22:00:55.103Z,3.42
2023-04-11T22:03:22.048Z,3.85
2023-04-11T22:05:48.848Z,3.00
2023-04-11T22:08:15.910Z,3.22
2023-04-11T22:10:47.643Z,2.60
2023-04-11T22:13:16.391Z,3.30
2023-04-11T22:15:43.645Z,2.92
2023-04-11T22:18:11.313Z,2.72
2023-04-11T22:20:42.563Z,3.13
2023-04-11T22:23:10.530Z,2.58
2023-04-11T22:25:37.411Z,2.80
2023-04-11T22:28:04.465Z,2.67
2023-04-11T22:30:31.176Z,2.47
2023-04-11T22:32:57.870Z,2.80
2023-04-11T22:35:24.500Z,2.28
2023-04-11T22:37:51.279Z,2.80
2023-04-11T22:40:18.022Z,2.50
2023-04-11T22:42:44.633Z,3.22
2023-04-11T22:45:11.439Z,2.80
2023-04-11T22:47:38.257Z,3.00
2023-04-11T22:50:05.291Z,2.80
2023-04-11T22:52:31.989Z,2.80
2023-04-11T22:54:58.651Z,3.20
2023-04-11T22:57:25.301Z,2.92
2023-04-11T22:59:51.992Z,2.38
2023-04-11T23:02:18.721Z,3.08
2023-04-11T23:04:45.595Z,3.08
2023-04-11T23:07:12.436Z,3.30
2023-04-11T23:09:39.086Z,3.17
2023-04-11T23:12:05.849Z,3.20
2023-04-11T23:14:32.509Z,3.20
2023-04-11T23:16:59.165Z,3.30
2023-04-11T23:19:25.871Z,3.15
2023-04-11T23:21:52.579Z,3.17
2023-04-11T23:24:19.339Z,3.30
2023-04-11T23:26:46.011Z,2.90
2023-04-11T23:29:12.810Z,3.00
2023-04-11T23:31:39.542Z,3.38
2023-04-11T23:34:06.220Z,3.10
2023-04-11T23:36:32.903Z,3.40
2023-04-11T23:38:59.608Z,2.90
2023-04-11T23:41:26.308Z,3.53
2023-04-11T23:43:53.063Z,3.70
2023-04-11T23:46:19.900Z,4.18
2023-04-11T23:48:46.623Z,4.03
2023-04-11T23:51:13.931Z,4.05
2023-04-11T23:53:40.777Z,4.22
2023-04-11T23:56:08.230Z,3.88
2023-04-11T23:58:35.184Z,3.78
